createdAt,value
2022-10-05T00:04:28.494Z,11.10
2022-10-05T00:14:54.445Z,11.10
2022-10-05T00:25:19.608Z,10.90
2022-10-05T00:35:45.565Z,10.60
2022-10-05T00:46:26.550Z,10.50
2022-10-05T00:57:35.989Z,10.60
2022-10-05T01:08:09.412Z,10.70
2022-10-05T01:18:42.373Z,10.20
2022-10-05T01:29:17.267Z,10.90
2022-10-05T01:39:53.257Z,10.80
2022-10-05T01:50:36.246Z,11.00
2022-10-05T02:01:04.416Z,10.70
2022-10-05T02:11:27.449Z,10.70
2022-10-05T02:21:57.024Z,10.50
2022-10-05T02:32:25.242Z,10.50
2022-10-05T02:43:07.499Z,9.80
2022-10-05T02:53:45.631Z,9.30
2022-10-05T03:04:16.828Z,10.00
2022-10-05T03:14:50.280Z,9.80
2022-10-05T03:25:34.232Z,10.40
2022-10-05T03:36:07.287Z,10.00
2022-10-05T03:46:40.654Z,11.00
2022-10-05T03:57:11.404Z,11.10
2022-10-05T04:07:43.587Z,11.20
2022-10-05T04:18:16.787Z,11.20
2022-10-05T04:28:46.460Z,11.00
2022-10-05T04:39:21.943Z,10.80
2022-10-05T04:50:10.669Z,10.70
2022-10-05T05:00:49.228Z,10.90
2022-10-05T05:11:24.437Z,10.70
2022-10-05T05:21:58.718Z,11.00
2022-10-05T05:32:36.457Z,11.70
2022-10-05T05:43:03.434Z,11.00
2022-10-05T05:53:30.828Z,11.60
2022-10-05T06:03:56.710Z,11.80
2022-10-05T06:14:23.219Z,12.40
2022-10-05T06:24:54.310Z,12.60
2022-10-05T06:35:23.822Z,12.40
2022-10-05T06:45:59.504Z,12.80
2022-10-05T06:56:48.746Z,13.00
2022-10-05T07:07:17.474Z,13.20
2022-10-05T07:17:49.154Z,13.80
2022-10-05T07:28:20.304Z,13.90
2022-10-05T07:38:47.842Z,13.30
2022-10-05T07:49:19.322Z,14.60
2022-10-05T07:59:49.230Z,15.10
2022-10-05T08:10:27.932Z,15.20
2022-10-05T08:20:53.727Z,15.00
2022-10-05T08:31:22.844Z,16.10
2022-10-05T08:42:20.654Z,16.30
2022-10-05T08:53:04.976Z,17.90
2022-10-05T09:03:59.059Z,17.00
2022-10-05T09:14:40.226Z,17.10
2022-10-05T09:25:17.136Z,17.70
2022-10-05T09:36:24.942Z,16.50
2022-10-05T09:47:07.683Z,16.50
2022-10-05T09:58:05.646Z,17.20
2022-10-05T10:08:38.419Z,17.10
2022-10-05T10:19:31.390Z,17.60
2022-10-05T10:30:19.545Z,17.50
2022-10-05T10:40:51.011Z,18.40
2022-10-05T10:51:20.208Z,18.00
2022-10-05T11:01:51.492Z,18.70
2022-10-05T11:12:50.081Z,19.10
2022-10-05T11:23:38.906Z,19.80
2022-10-05T11:34:39.763Z,19.70
2022-10-05T11:45:21.700Z,21.10
2022-10-05T11:55:45.940Z,20.20
2022-10-05T12:06:23.409Z,20.40
2022-10-05T12:16:51.958Z,19.90
2022-10-05T12:27:20.713Z,20.70
2022-10-05T12:37:47.672Z,20.90
2022-10-05T12:48:20.879Z,21.60
2022-10-05T12:58:53.214Z,21.50
2022-10-05T13:09:24.323Z,21.20
2022-10-05T13:19:48.100Z,20.70
2022-10-05T13:30:18.238Z,20.50
2022-10-05T13:40:52.713Z,21.70
2022-10-05T13:51:24.659Z,21.30
2022-10-05T14:01:53.582Z,20.50
2022-10-05T14:12:21.517Z,20.40
2022-10-05T14:22:44.112Z,20.80
2022-10-05T14:33:17.064Z,20.80
2022-10-05T14:43:39.007Z,21.10
2022-10-05T14:54:15.446Z,20.50
2022-10-05T15:04:46.991Z,20.60
2022-10-05T15:15:25.387Z,20.60
2022-10-05T15:25:55.018Z,20.20
2022-10-05T15:36:23.344Z,20.10
2022-10-05T15:46:56.440Z,19.60
2022-10-05T15:57:28.709Z,19.40
2022-10-05T16:08:15.489Z,18.90
2022-10-05T16:18:48.497Z,18.40
2022-10-05T16:29:17.747Z,17.70
2022-10-05T16:39:53.368Z,17.40
2022-10-05T16:50:20.998Z,17.00
2022-10-05T17:01:00.916Z,16.70
2022-10-05T17:11:34.628Z,16.30
2022-10-05T17:22:00.967Z,16.20
2022-10-05T17:32:36.259Z,16.00
2022-10-05T17:43:24.013Z,15.80
2022-10-05T17:54:11.138Z,15.70
2022-10-05T18:05:16.666Z,15.50
2022-10-05T18:15:51.703Z,15.20
2022-10-05T18:26:31.395Z,15.30
2022-10-05T18:37:07.301Z,15.30
2022-10-05T18:47:40.828Z,15.40
2022-10-05T18:58:24.093Z,15.20
2022-10-05T19:09:05.381Z,15.20
2022-10-05T19:19:56.907Z,15.20
2022-10-05T19:30:23.083Z,15.30
2022-10-05T19:40:50.724Z,15.40
2022-10-05T19:51:29.337Z,15.70
2022-10-05T20:01:52.582Z,15.80
2022-10-05T20:12:22.507Z,16.10
2022-10-05T20:22:47.613Z,16.30
2022-10-05T20:33:18.467Z,15.90
2022-10-05T20:43:40.496Z,15.90
2022-10-05T20:54:06.477Z,15.70
2022-10-05T21:04:40.191Z,15.60
2022-10-05T21:15:04.697Z,15.60
2022-10-05T21:25:52.340Z,15.60
2022-10-05T21:36:45.584Z,15.60
2022-10-05T21:47:23.213Z,15.50
2022-10-05T21:58:13.860Z,15.30
2022-10-05T22:08:40.363Z,15.20
2022-10-05T22:19:06.063Z,15.10
2022-10-05T22:29:27.624Z,15.10
2022-10-05T22:39:50.539Z,14.90
2022-10-05T22:50:11.935Z,14.90
2022-10-05T23:00:56.369Z,15.00
2022-10-05T23:11:19.054Z,15.20
2022-10-05T23:21:42.242Z,15.60
2022-10-05T23:32:04.676Z,15.40
2022-10-05T23:42:27.705Z,15.50
2022-10-05T23:52:49.006Z,15.50
